createdAt,value
2022-09-12T00:01:23.631Z,16.65
2022-09-12T00:03:49.950Z,16.11
2022-09-12T00:06:19.274Z,16.27
2022-09-12T00:08:48.955Z,16.43
2022-09-12T00:11:15.224Z,16.48
2022-09-12T00:13:41.982Z,16.55
2022-09-12T00:16:08.358Z,16.60
2022-09-12T00:18:34.714Z,16.62
2022-09-12T00:21:01.450Z,16.62
2022-09-12T00:23:27.706Z,16.63
2022-09-12T00:25:53.971Z,16.64
2022-09-12T00:28:20.399Z,16.63
2022-09-12T00:30:46.652Z,16.66
2022-09-12T00:33:12.957Z,16.67
2022-09-12T00:35:39.237Z,16.66
2022-09-12T00:38:05.509Z,16.69
2022-09-12T00:40:31.770Z,16.68
2022-09-12T00:42:58.160Z,16.68
2022-09-12T00:45:24.477Z,16.70
2022-09-12T00:47:50.751Z,16.69
2022-09-12T00:50:17.024Z,16.68
2022-09-12T00:52:43.281Z,16.66
2022-09-12T00:55:09.657Z,16.65
2022-09-12T00:57:35.908Z,16.58
2022-09-12T01:00:02.217Z,16.48
2022-09-12T01:02:28.507Z,16.47
2022-09-12T01:04:55.380Z,16.49
2022-09-12T01:07:21.644Z,16.47
2022-09-12T01:09:47.914Z,16.40
2022-09-12T01:12:14.197Z,16.23
2022-09-12T01:14:40.477Z,16.27
2022-09-12T01:17:06.761Z,16.27
2022-09-12T01:19:33.084Z,16.20
2022-09-12T01:21:59.374Z,16.22
2022-09-12T01:24:26.165Z,16.18
2022-09-12T01:26:52.415Z,16.14
2022-09-12T01:29:18.696Z,16.08
2022-09-12T01:31:45.011Z,16.09
2022-09-12T01:34:11.282Z,16.03
2022-09-12T01:36:38.144Z,16.03
2022-09-12T01:39:04.416Z,15.89
2022-09-12T01:41:30.845Z,16.01
2022-09-12T01:43:57.756Z,16.02
2022-09-12T01:46:24.419Z,16.02
2022-09-12T01:48:50.799Z,16.04
2022-09-12T01:51:17.910Z,16.05
2022-09-12T01:53:44.108Z,16.05
2022-09-12T01:56:10.706Z,15.98
2022-09-12T01:58:36.986Z,15.97
2022-09-12T02:01:03.317Z,15.97
2022-09-12T02:03:29.831Z,15.96
2022-09-12T02:05:56.084Z,15.94
2022-09-12T02:08:22.975Z,15.97
2022-09-12T02:10:49.227Z,15.98
2022-09-12T02:13:15.716Z,15.64
2022-09-12T02:15:41.991Z,15.61
2022-09-12T02:18:08.255Z,15.82
2022-09-12T02:20:47.881Z,15.85
2022-09-12T02:23:15.203Z,15.89
2022-09-12T02:25:43.041Z,15.88
2022-09-12T02:28:09.300Z,15.90
2022-09-12T02:30:35.635Z,15.87
2022-09-12T02:33:01.940Z,15.82
2022-09-12T02:35:28.246Z,15.84
2022-09-12T02:37:54.499Z,15.83
2022-09-12T02:40:20.824Z,15.83
2022-09-12T02:42:47.134Z,15.74
2022-09-12T02:45:13.417Z,15.75
2022-09-12T02:47:39.716Z,15.76
2022-09-12T02:50:08.025Z,15.74
2022-09-12T02:52:34.293Z,15.75
2022-09-12T02:55:00.578Z,15.76
2022-09-12T02:57:26.841Z,15.47
2022-09-12T02:59:53.119Z,15.56
2022-09-12T03:02:19.392Z,15.60
2022-09-12T03:04:45.711Z,15.13
2022-09-12T03:07:12.487Z,15.14
2022-09-12T03:09:38.769Z,15.31
2022-09-12T03:12:05.062Z,15.44
2022-09-12T03:14:31.325Z,15.50
2022-09-12T03:16:57.604Z,15.44
2022-09-12T03:19:23.883Z,15.56
2022-09-12T03:21:50.262Z,15.57
2022-09-12T03:24:16.540Z,15.59
2022-09-12T03:26:42.805Z,15.61
2022-09-12T03:29:09.067Z,15.62
2022-09-12T03:31:35.329Z,15.64
2022-09-12T03:34:01.599Z,15.66
2022-09-12T03:36:27.868Z,15.69
2022-09-12T03:38:54.129Z,15.69
2022-09-12T03:41:20.477Z,15.71
2022-09-12T03:43:46.737Z,15.72
2022-09-12T03:46:13.561Z,15.73
2022-09-12T03:48:39.821Z,15.63
2022-09-12T03:51:06.089Z,15.70
2022-09-12T03:53:32.366Z,15.71
2022-09-12T03:55:58.684Z,15.59
2022-09-12T03:58:25.011Z,15.63
2022-09-12T04:00:51.296Z,15.69
2022-09-12T04:03:19.227Z,15.70
2022-09-12T04:05:46.511Z,15.74
2022-09-12T04:08:12.783Z,15.74
2022-09-12T04:10:39.032Z,15.72
2022-09-12T04:13:05.469Z,15.69
2022-09-12T04:15:31.746Z,15.72
2022-09-12T04:17:59.611Z,15.72
2022-09-12T04:20:28.780Z,15.74
2022-09-12T04:22:55.036Z,15.76
2022-09-12T04:25:21.291Z,15.77
2022-09-12T04:27:47.561Z,15.70
2022-09-12T04:30:13.826Z,15.73
2022-09-12T04:32:40.888Z,15.72
2022-09-12T04:35:07.096Z,15.74
2022-09-12T04:37:33.374Z,15.63
2022-09-12T04:39:59.697Z,15.71
2022-09-12T04:42:25.968Z,15.71
2022-09-12T04:44:52.255Z,15.72
2022-09-12T04:47:18.826Z,15.75
2022-09-12T04:49:45.092Z,15.74
2022-09-12T04:52:11.352Z,15.65
2022-09-12T04:54:37.914Z,15.68
2022-09-12T04:57:04.172Z,15.72
2022-09-12T04:59:30.428Z,15.76
2022-09-12T05:01:56.786Z,15.77
2022-09-12T05:04:23.073Z,15.80
2022-09-12T05:06:49.550Z,15.82
2022-09-12T05:09:16.439Z,15.87
2022-09-12T05:14:29.421Z,15.92
2022-09-12T05:16:59.735Z,15.68
2022-09-12T05:19:26.127Z,15.83
2022-09-12T05:21:52.458Z,15.92
2022-09-12T05:24:18.766Z,15.98
2022-09-12T05:26:45.056Z,16.03
2022-09-12T05:29:11.506Z,16.05
2022-09-12T05:31:37.929Z,16.09
2022-09-12T05:34:09.989Z,16.14
2022-09-12T05:36:42.987Z,16.16
2022-09-12T05:39:09.251Z,16.18
2022-09-12T05:41:35.938Z,16.18
2022-09-12T05:44:02.380Z,16.17
2022-09-12T05:46:28.711Z,16.16
2022-09-12T05:48:56.412Z,15.89
2022-09-12T05:51:22.988Z,15.97
2022-09-12T05:53:49.245Z,15.94
2022-09-12T05:56:15.496Z,16.11
2022-09-12T05:58:42.142Z,16.24
2022-09-12T06:01:08.509Z,15.82
2022-09-12T06:03:34.808Z,15.69
2022-09-12T06:06:01.078Z,15.77
2022-09-12T06:08:27.347Z,15.68
2022-09-12T06:10:53.621Z,15.68
2022-09-12T06:13:19.879Z,15.61
2022-09-12T06:15:46.168Z,15.90
2022-09-12T06:18:13.025Z,16.21
2022-09-12T06:20:39.282Z,16.42
2022-09-12T06:23:05.545Z,16.51
2022-09-12T06:25:31.808Z,16.29
2022-09-12T06:27:58.081Z,16.24
2022-09-12T06:30:25.546Z,16.55
2022-09-12T06:32:51.949Z,16.64
2022-09-12T06:35:18.197Z,16.81
2022-09-12T06:37:44.472Z,16.89
2022-09-12T06:40:10.771Z,17.03
2022-09-12T06:42:37.055Z,17.10
2022-09-12T06:45:03.331Z,17.16
2022-09-12T06:47:30.224Z,17.06
2022-09-12T06:49:56.478Z,16.99
2022-09-12T06:52:22.954Z,17.16
2022-09-12T06:54:49.208Z,17.30
2022-09-12T06:57:15.484Z,17.33
2022-09-12T06:59:42.386Z,17.17
2022-09-12T07:02:09.200Z,17.35
2022-09-12T07:04:37.082Z,17.48
2022-09-12T07:07:03.370Z,17.37
2022-09-12T07:09:30.787Z,17.48
2022-09-12T07:11:57.067Z,17.27
2022-09-12T07:14:23.325Z,17.35
2022-09-12T07:16:49.643Z,17.40
2022-09-12T07:19:15.915Z,17.36
2022-09-12T07:21:42.428Z,17.49
2022-09-12T07:24:09.436Z,17.38
2022-09-12T07:26:35.744Z,17.48
2022-09-12T07:29:25.195Z,17.71
2022-09-12T07:31:48.484Z,17.94
2022-09-12T07:34:14.751Z,17.83
2022-09-12T07:36:41.021Z,18.04
2022-09-12T07:39:07.321Z,18.05
2022-09-12T07:41:33.888Z,17.88
2022-09-12T07:44:00.177Z,18.02
2022-09-12T07:46:26.541Z,17.41
2022-09-12T07:48:52.819Z,17.69
2022-09-12T07:51:19.075Z,18.13
2022-09-12T07:53:45.327Z,18.28
2022-09-12T07:56:11.783Z,18.50
2022-09-12T07:58:38.045Z,17.71
2022-09-12T08:01:04.332Z,18.20
2022-09-12T08:03:30.637Z,18.23
2022-09-12T08:05:57.036Z,17.76
2022-09-12T08:08:23.297Z,18.48
2022-09-12T08:10:49.571Z,17.90
2022-09-12T08:13:15.831Z,18.11
2022-09-12T08:15:42.105Z,17.68
2022-09-12T08:18:08.408Z,17.67
2022-09-12T08:20:34.672Z,17.88
2022-09-12T08:23:01.484Z,18.28
2022-09-12T08:25:28.625Z,18.44
2022-09-12T08:27:55.695Z,18.36
2022-09-12T08:30:21.893Z,18.34
2022-09-12T08:32:48.219Z,18.54
2022-09-12T08:35:15.063Z,18.67
2022-09-12T08:37:41.319Z,18.19
2022-09-12T08:40:08.379Z,18.45
2022-09-12T08:42:34.972Z,17.58
2022-09-12T08:45:01.254Z,18.06
2022-09-12T08:47:27.517Z,18.09
2022-09-12T08:49:54.053Z,18.14
2022-09-12T08:52:20.387Z,18.45
2022-09-12T08:54:46.685Z,18.22
2022-09-12T08:57:13.167Z,18.89
2022-09-12T08:59:39.431Z,19.16
2022-09-12T09:02:06.954Z,18.96
2022-09-12T09:04:33.232Z,19.51
2022-09-12T09:06:59.553Z,18.96
2022-09-12T09:09:25.901Z,19.46
2022-09-12T09:11:52.320Z,19.74
2022-09-12T09:14:37.425Z,20.05
2022-09-12T09:17:03.685Z,19.77
2022-09-12T09:19:29.962Z,19.83
2022-09-12T09:21:56.232Z,19.84
2022-09-12T09:24:22.496Z,20.05
2022-09-12T09:26:48.745Z,20.09
2022-09-12T09:29:15.029Z,20.00
2022-09-12T09:31:41.311Z,19.98
2022-09-12T09:34:07.587Z,19.35
2022-09-12T09:36:33.843Z,19.38
2022-09-12T09:39:00.751Z,19.64
2022-09-12T09:41:27.009Z,19.58
2022-09-12T09:43:53.265Z,19.97
2022-09-12T09:46:19.599Z,20.15
2022-09-12T09:48:46.058Z,20.67
2022-09-12T09:51:12.384Z,20.63
2022-09-12T09:53:38.646Z,20.70
2022-09-12T09:56:04.916Z,21.21
2022-09-12T09:58:31.176Z,21.08
2022-09-12T10:00:57.427Z,20.56
2022-09-12T10:03:23.694Z,20.34
2022-09-12T10:05:49.946Z,21.09
2022-09-12T10:08:16.245Z,21.16
2022-09-12T10:10:42.513Z,20.65
2022-09-12T10:13:10.061Z,21.48
2022-09-12T10:15:39.768Z,20.33
2022-09-12T10:18:06.088Z,20.68
2022-09-12T10:20:32.357Z,20.85
2022-09-12T10:22:58.623Z,20.42
2022-09-12T10:25:24.893Z,20.88
2022-09-12T10:27:51.153Z,19.19
2022-09-12T10:30:17.788Z,19.48
2022-09-12T10:32:44.089Z,20.17
2022-09-12T10:35:10.365Z,19.20
2022-09-12T10:37:36.668Z,19.64
2022-09-12T10:40:03.650Z,20.11
2022-09-12T10:42:29.885Z,20.64
2022-09-12T10:44:56.170Z,20.73
2022-09-12T10:47:22.436Z,20.68
2022-09-12T10:49:50.939Z,20.13
2022-09-12T10:52:17.507Z,20.58
2022-09-12T10:54:43.813Z,20.75
2022-09-12T10:57:10.067Z,20.93
2022-09-12T10:59:36.332Z,21.10
2022-09-12T11:02:02.665Z,21.10
2022-09-12T11:04:28.978Z,21.27
2022-09-12T11:06:55.241Z,21.34
2022-09-12T11:09:21.580Z,21.55
2022-09-12T11:11:47.881Z,21.09
2022-09-12T11:14:14.170Z,21.08
2022-09-12T11:16:42.951Z,21.54
2022-09-12T11:19:09.459Z,21.86
2022-09-12T11:21:35.715Z,21.47
2022-09-12T11:24:02.243Z,21.87
2022-09-12T11:26:28.525Z,22.33
2022-09-12T11:28:54.778Z,22.59
2022-09-12T11:31:21.052Z,22.28
2022-09-12T11:33:47.703Z,20.99
2022-09-12T11:36:14.136Z,21.96
2022-09-12T11:38:40.391Z,21.91
2022-09-12T11:41:06.799Z,22.50
2022-09-12T11:43:33.052Z,22.26
2022-09-12T11:45:59.369Z,21.05
2022-09-12T11:48:25.700Z,21.68
2022-09-12T11:50:52.220Z,22.10
2022-09-12T11:53:18.501Z,21.92
2022-09-12T11:55:44.757Z,22.59
2022-09-12T11:58:12.320Z,22.14
2022-09-12T12:00:38.594Z,22.30
2022-09-12T12:03:04.891Z,21.54
2022-09-12T12:05:31.292Z,21.88
2022-09-12T12:07:57.547Z,22.44
2022-09-12T12:10:24.317Z,20.86
2022-09-12T12:12:50.560Z,20.78
2022-09-12T12:15:16.856Z,21.34
2022-09-12T12:17:43.120Z,20.22
2022-09-12T12:20:09.378Z,21.15
2022-09-12T12:22:36.010Z,21.00
2022-09-12T12:25:02.320Z,20.89
2022-09-12T12:27:28.588Z,20.95
2022-09-12T12:29:55.324Z,20.91
2022-09-12T12:32:21.677Z,21.56
2022-09-12T12:34:47.947Z,21.63
2022-09-12T12:37:14.201Z,21.45
2022-09-12T12:39:40.762Z,21.59
2022-09-12T12:42:07.069Z,22.11
2022-09-12T12:44:33.357Z,22.48
2022-09-12T12:46:59.634Z,22.48
2022-09-12T12:49:26.855Z,22.58
2022-09-12T12:51:53.126Z,21.65
2022-09-12T12:54:19.522Z,22.15
2022-09-12T12:56:45.802Z,21.92
2022-09-12T12:59:12.213Z,21.58
2022-09-12T13:01:41.032Z,21.16
2022-09-12T13:04:08.141Z,21.96
2022-09-12T13:06:34.331Z,22.24
2022-09-12T13:09:00.591Z,22.30
2022-09-12T13:11:26.847Z,22.19
2022-09-12T13:13:53.505Z,22.05
2022-09-12T13:16:19.793Z,22.40
2022-09-12T13:18:47.370Z,22.43
2022-09-12T13:21:13.648Z,21.69
2022-09-12T13:23:40.129Z,22.10
2022-09-12T13:26:06.478Z,21.39
2022-09-12T13:28:32.745Z,21.36
2022-09-12T13:30:59.286Z,21.86
2022-09-12T13:33:25.616Z,21.31
2022-09-12T13:35:51.903Z,21.86
2022-09-12T13:38:18.431Z,22.16
2022-09-12T13:40:44.719Z,22.36
2022-09-12T13:43:10.990Z,22.21
2022-09-12T13:45:37.279Z,22.33
2022-09-12T13:48:03.553Z,22.43
2022-09-12T13:50:29.804Z,21.43
2022-09-12T13:52:56.071Z,21.84
2022-09-12T13:55:22.358Z,21.74
2022-09-12T13:57:48.608Z,21.50
2022-09-12T14:00:19.244Z,21.24
2022-09-12T14:02:45.543Z,21.95
2022-09-12T14:05:11.920Z,22.30
2022-09-12T14:07:38.647Z,21.94
2022-09-12T14:10:05.881Z,22.17
2022-09-12T14:12:32.390Z,22.09
2022-09-12T14:14:58.653Z,22.34
2022-09-12T14:17:25.295Z,22.37
2022-09-12T14:19:52.922Z,21.95
2022-09-12T14:22:19.197Z,21.74
2022-09-12T14:24:51.507Z,21.73
2022-09-12T14:27:17.902Z,22.17
2022-09-12T14:29:44.169Z,22.14
2022-09-12T14:32:10.461Z,21.86
2022-09-12T14:34:36.742Z,21.14
2022-09-12T14:37:03.013Z,21.46
2022-09-12T14:39:29.353Z,21.78
2022-09-12T14:41:55.623Z,21.97
2022-09-12T14:44:21.891Z,21.05
2022-09-12T14:46:48.526Z,21.81
2022-09-12T14:49:14.840Z,21.96
2022-09-12T14:51:41.145Z,22.01
2022-09-12T14:54:07.475Z,21.76
2022-09-12T14:56:33.724Z,21.79
2022-09-12T14:59:00.751Z,21.97
2022-09-12T15:01:27.149Z,21.82
2022-09-12T15:03:53.921Z,21.90
2022-09-12T15:06:20.390Z,21.94
2022-09-12T15:08:46.676Z,21.62
2022-09-12T15:11:13.384Z,21.51
2022-09-12T15:13:39.644Z,21.63
2022-09-12T15:16:05.952Z,21.79
2022-09-12T15:18:32.237Z,21.62
2022-09-12T15:20:58.500Z,21.52
2022-09-12T15:23:24.757Z,21.57
2022-09-12T15:25:51.060Z,21.06
2022-09-12T15:28:17.440Z,21.25
2022-09-12T15:30:43.814Z,21.25
2022-09-12T15:33:10.078Z,21.31
2022-09-12T15:35:36.341Z,21.00
2022-09-12T15:38:02.603Z,21.19
2022-09-12T15:40:28.858Z,21.02
2022-09-12T15:42:55.255Z,21.36
2022-09-12T15:45:21.578Z,21.18
2022-09-12T15:47:49.689Z,21.08
2022-09-12T15:50:15.940Z,20.86
2022-09-12T15:52:42.225Z,21.12
2022-09-12T15:55:08.988Z,21.04
2022-09-12T15:57:35.285Z,21.21
2022-09-12T16:00:01.720Z,21.23
2022-09-12T16:02:28.033Z,21.31
2022-09-12T16:04:55.661Z,21.21
2022-09-12T16:07:21.920Z,21.22
2022-09-12T16:09:48.445Z,21.04
2022-09-12T16:12:14.716Z,20.85
2022-09-12T16:14:40.993Z,20.64
2022-09-12T16:17:07.990Z,20.62
2022-09-12T16:19:34.189Z,20.44
2022-09-12T16:22:00.461Z,20.71
2022-09-12T16:24:26.757Z,20.71
2022-09-12T16:26:53.003Z,20.82
2022-09-12T16:29:19.338Z,20.87
2022-09-12T16:31:45.611Z,20.85
2022-09-12T16:34:11.888Z,20.85
2022-09-12T16:36:38.235Z,20.86
2022-09-12T16:39:04.480Z,20.85
2022-09-12T16:41:30.737Z,20.85
2022-09-12T16:43:57.025Z,20.81
2022-09-12T16:46:23.341Z,20.76
2022-09-12T16:48:52.475Z,20.71
2022-09-12T16:51:20.199Z,20.68
2022-09-12T16:53:46.455Z,20.66
2022-09-12T16:56:12.936Z,20.63
2022-09-12T16:58:41.966Z,20.58
2022-09-12T17:01:08.509Z,20.50
2022-09-12T17:03:35.918Z,20.45
2022-09-12T17:06:02.205Z,20.41
2022-09-12T17:08:28.705Z,20.35
2022-09-12T17:10:55.036Z,20.29
2022-09-12T17:13:21.293Z,20.25
2022-09-12T17:15:47.580Z,20.16
2022-09-12T17:18:13.901Z,20.10
2022-09-12T17:20:40.162Z,20.06
2022-09-12T17:23:09.639Z,19.98
2022-09-12T17:25:36.204Z,19.93
2022-09-12T17:28:05.160Z,19.89
2022-09-12T17:30:31.407Z,19.82
2022-09-12T17:32:57.669Z,19.76
2022-09-12T17:35:23.998Z,19.72
2022-09-12T17:37:50.255Z,19.66
2022-09-12T17:40:16.627Z,19.63
2022-09-12T17:42:43.196Z,19.63
2022-09-12T17:45:09.976Z,19.57
2022-09-12T17:47:36.228Z,19.59
2022-09-12T17:50:27.768Z,19.55
2022-09-12T17:52:48.751Z,19.51
2022-09-12T17:55:15.336Z,19.49
2022-09-12T17:57:41.599Z,19.49
2022-09-12T18:00:07.853Z,19.48
2022-09-12T18:02:34.173Z,19.43
2022-09-12T18:05:01.620Z,19.35
2022-09-12T18:07:27.880Z,19.21
2022-09-12T18:09:55.062Z,19.29
2022-09-12T18:12:21.356Z,19.30
2022-09-12T18:14:47.618Z,19.19
2022-09-12T18:17:13.888Z,19.20
2022-09-12T18:19:40.221Z,19.20
2022-09-12T18:22:06.496Z,19.24
2022-09-12T18:24:32.765Z,19.08
2022-09-12T18:26:59.118Z,19.17
2022-09-12T18:29:25.433Z,19.17
2022-09-12T18:31:52.184Z,19.15
2022-09-12T18:34:18.631Z,19.11
2022-09-12T18:36:44.900Z,19.07
2022-09-12T18:39:11.159Z,19.06
2022-09-12T18:41:37.695Z,19.03
2022-09-12T18:44:04.956Z,18.96
2022-09-12T18:46:34.693Z,18.92
2022-09-12T18:49:01.813Z,18.84
2022-09-12T18:51:34.856Z,18.80
2022-09-12T18:54:01.135Z,18.77
2022-09-12T18:56:27.459Z,18.72
2022-09-12T18:58:53.741Z,18.67
2022-09-12T19:01:20.323Z,18.60
2022-09-12T19:03:46.696Z,18.53
2022-09-12T19:06:13.542Z,18.50
2022-09-12T19:08:39.816Z,18.49
2022-09-12T19:11:06.118Z,18.46
2022-09-12T19:13:32.381Z,18.40
2022-09-12T19:15:58.686Z,18.36
2022-09-12T19:18:24.959Z,18.33
2022-09-12T19:20:51.359Z,18.22
2022-09-12T19:23:17.625Z,18.20
2022-09-12T19:25:45.417Z,18.23
2022-09-12T19:28:11.679Z,18.21
2022-09-12T19:30:41.767Z,18.19
2022-09-12T19:33:10.610Z,18.15
2022-09-12T19:35:37.085Z,18.11
2022-09-12T19:38:03.752Z,18.10
2022-09-12T19:40:30.184Z,18.07
2022-09-12T19:42:56.457Z,17.92
2022-09-12T19:45:22.757Z,17.78
2022-09-12T19:47:49.019Z,17.83
2022-09-12T19:50:16.126Z,17.82
2022-09-12T19:52:42.400Z,17.79
2022-09-12T19:55:08.753Z,17.79
2022-09-12T19:57:35.011Z,17.69
2022-09-12T20:00:01.282Z,17.66
2022-09-12T20:02:28.014Z,17.65
2022-09-12T20:04:54.344Z,17.60
2022-09-12T20:07:20.641Z,17.59
2022-09-12T20:09:47.103Z,17.57
2022-09-12T20:12:14.408Z,17.53
2022-09-12T20:14:40.661Z,17.53
2022-09-12T20:17:06.916Z,17.47
2022-09-12T20:19:33.211Z,17.46
2022-09-12T20:21:59.772Z,17.45
2022-09-12T20:24:26.076Z,17.41
2022-09-12T20:26:52.497Z,17.37
2022-09-12T20:29:18.747Z,17.33
2022-09-12T20:31:45.010Z,17.29
2022-09-12T20:34:14.627Z,17.27
2022-09-12T20:36:40.912Z,17.25
2022-09-12T20:39:07.177Z,17.24
2022-09-12T20:41:33.473Z,17.18
2022-09-12T20:43:59.740Z,17.15
2022-09-12T20:46:26.100Z,17.09
2022-09-12T20:48:52.500Z,17.06
2022-09-12T20:51:18.827Z,17.01
2022-09-12T20:53:45.357Z,17.00
2022-09-12T20:56:11.651Z,16.97
2022-09-12T20:58:43.080Z,16.91
2022-09-12T21:01:11.247Z,16.82
2022-09-12T21:03:37.881Z,16.80
2022-09-12T21:06:04.139Z,16.82
2022-09-12T21:08:30.425Z,16.67
2022-09-12T21:10:56.745Z,16.78
2022-09-12T21:13:23.019Z,16.74
2022-09-12T21:15:49.311Z,16.71
2022-09-12T21:18:15.637Z,16.67
2022-09-12T21:20:41.894Z,16.70
2022-09-12T21:23:08.156Z,16.63
2022-09-12T21:25:34.425Z,16.62
2022-09-12T21:28:00.690Z,16.57
2022-09-12T21:30:27.565Z,16.57
2022-09-12T21:32:53.811Z,16.58
2022-09-12T21:35:20.224Z,16.58
2022-09-12T21:37:46.480Z,16.54
2022-09-12T21:40:12.766Z,16.54
2022-09-12T21:42:39.035Z,16.52
2022-09-12T21:45:05.296Z,16.49
2022-09-12T21:47:31.557Z,16.44
2022-09-12T21:49:58.368Z,16.46
2022-09-12T21:52:24.635Z,16.36
2022-09-12T21:54:50.901Z,16.34
2022-09-12T21:57:17.174Z,16.25
2022-09-12T21:59:43.434Z,16.20
2022-09-12T22:02:10.731Z,16.17
2022-09-12T22:04:37.037Z,16.21
2022-09-12T22:07:03.304Z,16.21
2022-09-12T22:09:29.569Z,16.17
2022-09-12T22:11:55.838Z,16.13
2022-09-12T22:14:22.103Z,16.11
2022-09-12T22:16:49.361Z,16.12
2022-09-12T22:19:15.629Z,16.07
2022-09-12T22:22:01.822Z,16.03
2022-09-12T22:24:28.076Z,16.05
2022-09-12T22:26:54.949Z,15.97
2022-09-12T22:29:24.236Z,15.97
2022-09-12T22:31:50.491Z,15.87
2022-09-12T22:34:16.756Z,15.85
2022-09-12T22:36:43.013Z,15.85
2022-09-12T22:39:09.288Z,15.91
2022-09-12T22:41:35.563Z,15.91
2022-09-12T22:44:01.829Z,15.85
2022-09-12T22:46:29.925Z,15.89
2022-09-12T22:48:56.253Z,15.84
2022-09-12T22:51:22.533Z,15.82
2022-09-12T22:53:48.937Z,15.69
2022-09-12T22:56:15.428Z,15.56
2022-09-12T22:58:42.151Z,15.64
2022-09-12T23:01:08.520Z,15.58
2022-09-12T23:03:35.151Z,15.60
2022-09-12T23:06:01.536Z,15.57
2022-09-12T23:08:29.511Z,15.51
2022-09-12T23:10:55.703Z,15.49
2022-09-12T23:13:21.964Z,15.25
2022-09-12T23:15:49.404Z,15.32
2022-09-12T23:18:16.035Z,15.37
2022-09-12T23:20:42.300Z,15.34
2022-09-12T23:23:09.579Z,15.32
2022-09-12T23:25:35.839Z,15.26
2022-09-12T23:28:02.100Z,15.36
2022-09-12T23:30:28.513Z,15.32
2022-09-12T23:32:55.051Z,15.24
2022-09-12T23:35:21.314Z,15.31
2022-09-12T23:37:47.599Z,15.32
2022-09-12T23:40:13.938Z,15.34
2022-09-12T23:42:40.364Z,15.25
2022-09-12T23:45:06.645Z,15.30
2022-09-12T23:47:32.939Z,15.26
2022-09-12T23:49:59.204Z,15.28
2022-09-12T23:52:28.561Z,15.27
2022-09-12T23:54:54.819Z,15.24
2022-09-12T23:57:21.069Z,15.22
2022-09-12T23:59:47.335Z,15.21
